Time;durP1;ratioP1;P1;durP2;ratioP2;P2;SDS_P1;SDS_P2;PMS_P1;PMS_P2;Temp;Humidity;BMP_temperature;BMP_pressure;BME280_temperature;BME280_humidity;BME280_pressure;Samples;Min_cycle;Max_cycle;Signal;HPM_P1;HPM_P2
2024/03/23 00:02:10;;;;;;;36.92;10.70;;;;;;;;;;5032342;28;20052;-69
2024/03/23 00:04:35;;;;;;;45.38;10.85;;;;;;;;;;5029408;28;20373;-68
2024/03/23 00:07:01;;;;;;;36.05;10.55;;;;;;;;;;5029296;28;20022;-68
2024/03/23 00:09:26;;;;;;;40.72;10.93;;;;;;;;;;5024353;28;20033;-69
2024/03/23 00:11:52;;;;;;;31.85;10.18;;;;;;;;;;5026966;28;20087;-69
2024/03/23 00:14:18;;;;;;;43.58;10.88;;;;;;;;;;5034861;28;20549;-69
2024/03/23 00:16:44;;;;;;;33.00;10.15;;;;;;;;;;5025530;28;20470;-69
2024/03/23 00:19:09;;;;;;;45.80;10.02;;;;;;;;;;5028272;28;20024;-69
2024/03/23 00:21:38;;;;;;;29.52;9.23;;;;;;;;;;5028421;28;20412;-69
2024/03/23 00:24:04;;;;;;;38.08;9.05;;;;;;;;;;5025194;28;20045;-69
2024/03/23 00:26:31;;;;;;;35.92;8.70;;;;;;;;;;5029355;28;20568;-69
2024/03/23 00:28:56;;;;;;;27.20;9.23;;;;;;;;;;5025815;28;20484;-69
2024/03/23 00:31:22;;;;;;;23.52;8.15;;;;;;;;;;5026474;28;20071;-69
2024/03/23 00:33:48;;;;;;;41.00;8.30;;;;;;;;;;5027766;28;20465;-68
2024/03/23 00:36:14;;;;;;;36.30;8.77;;;;;;;;;;5030332;28;20477;-69
2024/03/23 00:38:40;;;;;;;31.30;10.13;;;;;;;;;;5028557;28;20530;-69
2024/03/23 00:41:05;;;;;;;28.75;9.32;;;;;;;;;;5025388;28;20037;-69
2024/03/23 00:43:31;;;;;;;36.60;8.45;;;;;;;;;;5031021;28;20067;-69
2024/03/23 00:45:57;;;;;;;31.38;8.85;;;;;;;;;;5027191;28;20440;-69
2024/03/23 00:48:22;;;;;;;33.55;8.15;;;;;;;;;;5034230;28;20099;-69
2024/03/23 00:50:48;;;;;;;35.50;9.90;;;;;;;;;;5029969;28;20049;-67
2024/03/23 00:53:14;;;;;;;32.83;9.85;;;;;;;;;;5030573;28;20048;-68
2024/03/23 00:55:40;;;;;;;33.50;9.18;;;;;;;;;;5031140;28;20029;-68
2024/03/23 00:58:05;;;;;;;32.38;8.23;;;;;;;;;;5029407;28;20017;-68
2024/03/23 01:00:30;;;;;;;33.72;8.10;;;;;;;;;;5031114;28;20548;-68
2024/03/23 01:02:55;;;;;;;39.78;9.60;;;;;;;;;;5030326;28;20523;-68
2024/03/23 01:05:20;;;;;;;39.30;9.53;;;;;;;;;;5025806;28;20028;-68
2024/03/23 01:07:46;;;;;;;37.23;9.00;;;;;;;;;;5027785;28;20248;-68
2024/03/23 01:10:11;;;;;;;47.35;8.88;;;;;;;;;;5036247;28;20876;-67
2024/03/23 01:12:36;;;;;;;46.43;9.37;;;;;;;;;;5033201;28;20457;-68
2024/03/23 01:15:01;;;;;;;26.77;8.00;;;;;;;;;;5031956;28;20303;-68
2024/03/23 01:17:26;;;;;;;33.33;8.95;;;;;;;;;;5031025;28;20295;-67
2024/03/23 01:19:52;;;;;;;22.70;6.35;;;;;;;;;;5026966;28;20362;-68
2024/03/23 01:22:17;;;;;;;24.92;5.25;;;;;;;;;;5036602;28;20021;-68
2024/03/23 01:24:42;;;;;;;21.10;4.60;;;;;;;;;;5028477;28;20018;-68
2024/03/23 01:27:08;;;;;;;24.43;4.13;;;;;;;;;;5033899;28;20435;-68
2024/03/23 01:29:33;;;;;;;16.60;4.20;;;;;;;;;;5030707;28;20264;-67
2024/03/23 01:31:58;;;;;;;21.53;3.03;;;;;;;;;;5029778;28;20086;-68
2024/03/23 01:34:24;;;;;;;21.93;4.20;;;;;;;;;;5031287;28;20856;-68
2024/03/23 01:36:50;;;;;;;21.75;3.10;;;;;;;;;;5030311;28;20292;-68
2024/03/23 01:39:15;;;;;;;14.85;3.17;;;;;;;;;;5031057;28;20495;-68
2024/03/23 01:41:42;;;;;;;15.35;2.83;;;;;;;;;;5029915;28;20021;-68
2024/03/23 01:44:07;;;;;;;12.93;3.10;;;;;;;;;;5030579;28;20495;-68
2024/03/23 01:46:33;;;;;;;16.45;3.05;;;;;;;;;;5024364;28;20064;-67
2024/03/23 01:48:58;;;;;;;15.98;2.95;;;;;;;;;;5039048;28;20036;-68
2024/03/23 01:51:24;;;;;;;11.95;2.75;;;;;;;;;;5031095;28;20476;-68
2024/03/23 01:53:49;;;;;;;12.23;2.75;;;;;;;;;;5028657;28;20072;-68
2024/03/23 01:56:15;;;;;;;25.63;5.10;;;;;;;;;;5029732;28;20048;-68
2024/03/23 01:58:40;;;;;;;17.50;3.90;;;;;;;;;;5026344;28;20388;-68
2024/03/23 02:01:05;;;;;;;12.70;3.17;;;;;;;;;;5028777;28;20010;-68
2024/03/23 02:03:31;;;;;;;14.87;2.87;;;;;;;;;;5029894;28;20711;-68
2024/03/23 02:05:56;;;;;;;14.38;3.72;;;;;;;;;;5031596;28;20256;-68
2024/03/23 02:08:22;;;;;;;15.55;3.28;;;;;;;;;;5030532;28;20496;-68
2024/03/23 02:10:48;;;;;;;24.92;3.40;;;;;;;;;;5028300;28;20020;-68
2024/03/23 02:13:14;;;;;;;16.85;3.28;;;;;;;;;;5026115;28;20493;-68
2024/03/23 02:15:39;;;;;;;13.67;3.27;;;;;;;;;;5027317;28;20027;-68
2024/03/23 02:18:04;;;;;;;18.73;3.53;;;;;;;;;;5027915;28;20026;-68
2024/03/23 02:20:29;;;;;;;23.02;3.55;;;;;;;;;;5029126;28;20029;-68
2024/03/23 02:22:55;;;;;;;17.75;3.85;;;;;;;;;;5030340;28;20017;-68
2024/03/23 02:25:20;;;;;;;18.43;4.03;;;;;;;;;;5031227;28;20018;-68
2024/03/23 02:27:45;;;;;;;16.77;3.90;;;;;;;;;;5033089;28;20260;-68
2024/03/23 02:30:10;;;;;;;8.37;2.93;;;;;;;;;;5030371;28;20364;-68
2024/03/23 02:32:35;;;;;;;15.75;3.15;;;;;;;;;;5033441;28;20765;-68
2024/03/23 02:35:01;;;;;;;18.57;3.27;;;;;;;;;;5025996;28;20268;-68
2024/03/23 02:37:26;;;;;;;14.00;3.33;;;;;;;;;;5030382;28;20750;-67
2024/03/23 02:39:51;;;;;;;11.95;2.90;;;;;;;;;;5029214;28;20362;-68
2024/03/23 02:42:17;;;;;;;21.67;3.67;;;;;;;;;;5031692;28;20041;-68
2024/03/23 02:44:42;;;;;;;15.48;3.65;;;;;;;;;;5030158;28;20268;-68
2024/03/23 02:47:08;;;;;;;22.25;4.65;;;;;;;;;;5031527;28;20029;-68
2024/03/23 02:49:33;;;;;;;15.63;4.33;;;;;;;;;;5028561;28;20033;-68
2024/03/23 02:51:58;;;;;;;13.40;4.65;;;;;;;;;;5032720;28;20310;-68
2024/03/23 02:54:23;;;;;;;15.70;4.53;;;;;;;;;;5032026;28;20024;-68
2024/03/23 02:56:48;;;;;;;14.10;4.40;;;;;;;;;;5025734;28;20374;-68
2024/03/23 02:59:13;;;;;;;16.97;4.03;;;;;;;;;;5029083;28;20283;-68
2024/03/23 03:01:38;;;;;;;16.38;3.90;;;;;;;;;;5027220;28;20402;-68
2024/03/23 03:04:05;;;;;;;15.17;4.20;;;;;;;;;;5026815;28;20631;-68
2024/03/23 03:06:30;;;;;;;17.48;4.05;;;;;;;;;;5028706;28;20268;-68
2024/03/23 03:08:55;;;;;;;22.73;4.75;;;;;;;;;;5031842;28;20502;-68
2024/03/23 03:11:20;;;;;;;16.53;4.30;;;;;;;;;;5029953;28;20130;-68
2024/03/23 03:13:45;;;;;;;20.80;4.10;;;;;;;;;;5027108;28;20284;-67
2024/03/23 03:16:11;;;;;;;19.20;5.00;;;;;;;;;;5033883;28;20692;-68
2024/03/23 03:18:36;;;;;;;18.92;4.72;;;;;;;;;;5032172;28;20261;-68
2024/03/23 03:21:02;;;;;;;15.57;4.47;;;;;;;;;;5030103;28;20095;-68
2024/03/23 03:23:27;;;;;;;14.45;4.93;;;;;;;;;;5031459;28;20030;-68
2024/03/23 03:25:52;;;;;;;15.05;4.68;;;;;;;;;;5026679;28;20014;-67
2024/03/23 03:28:17;;;;;;;19.90;5.07;;;;;;;;;;5028006;28;20018;-68
2024/03/23 03:30:43;;;;;;;18.50;4.70;;;;;;;;;;5029463;28;20017;-68
2024/03/23 03:33:08;;;;;;;20.13;5.50;;;;;;;;;;5029469;28;20438;-68
2024/03/23 03:35:33;;;;;;;16.27;4.50;;;;;;;;;;5025840;28;20257;-68
2024/03/23 03:37:58;;;;;;;19.87;4.90;;;;;;;;;;5029070;28;20349;-68
2024/03/23 03:40:24;;;;;;;19.90;5.07;;;;;;;;;;5032285;28;20611;-68
2024/03/23 03:42:49;;;;;;;16.40;4.32;;;;;;;;;;5029374;28;20248;-68
2024/03/23 03:45:14;;;;;;;17.63;3.87;;;;;;;;;;5032194;28;20504;-68
2024/03/23 03:47:40;;;;;;;15.65;3.88;;;;;;;;;;5027103;28;20283;-68
2024/03/23 03:50:05;;;;;;;10.60;3.88;;;;;;;;;;5032942;28;20033;-68
2024/03/23 03:52:30;;;;;;;19.90;3.85;;;;;;;;;;5030465;28;20493;-68
2024/03/23 03:55:02;;;;;;;15.45;3.58;;;;;;;;;;5027301;28;20036;-67
2024/03/23 03:57:27;;;;;;;27.73;3.75;;;;;;;;;;5027732;28;20017;-68
2024/03/23 03:59:52;;;;;;;19.20;3.37;;;;;;;;;;5023475;28;20026;-68
2024/03/23 04:02:17;;;;;;;20.37;3.80;;;;;;;;;;5027857;28;20761;-68
2024/03/23 04:04:42;;;;;;;19.07;3.13;;;;;;;;;;5028576;28;20276;-68
2024/03/23 04:07:07;;;;;;;15.53;2.63;;;;;;;;;;5030638;28;20264;-68
2024/03/23 04:09:33;;;;;;;10.75;3.08;;;;;;;;;;5028320;28;20442;-68
2024/03/23 04:11:58;;;;;;;18.23;3.07;;;;;;;;;;5029331;28;20536;-68
2024/03/23 04:14:23;;;;;;;26.93;2.93;;;;;;;;;;5032377;28;20267;-68
2024/03/23 04:16:48;;;;;;;18.03;3.07;;;;;;;;;;5032865;28;20782;-68
2024/03/23 04:19:13;;;;;;;10.20;2.43;;;;;;;;;;5032366;28;20354;-68
2024/03/23 04:21:39;;;;;;;16.30;2.97;;;;;;;;;;5028168;28;20763;-68
2024/03/23 04:24:04;;;;;;;15.70;2.47;;;;;;;;;;5028447;28;20195;-68
2024/03/23 04:26:30;;;;;;;11.68;2.80;;;;;;;;;;5029174;28;20021;-68
2024/03/23 04:28:55;;;;;;;11.73;2.83;;;;;;;;;;5024391;28;20408;-68
2024/03/23 04:31:20;;;;;;;15.48;3.25;;;;;;;;;;5032264;28;20449;-68
2024/03/23 04:33:45;;;;;;;19.80;2.97;;;;;;;;;;5030287;28;20527;-68
2024/03/23 04:36:10;;;;;;;16.57;2.77;;;;;;;;;;5024288;28;20361;-68
2024/03/23 04:38:35;;;;;;;14.55;2.95;;;;;;;;;;5027550;28;20358;-68
2024/03/23 04:41:01;;;;;;;23.00;4.37;;;;;;;;;;5031876;28;20032;-67
2024/03/23 04:43:27;;;;;;;17.05;2.33;;;;;;;;;;5031814;28;20643;-68
2024/03/23 04:45:52;;;;;;;18.83;2.67;;;;;;;;;;5031650;28;20101;-68
2024/03/23 04:48:19;;;;;;;16.30;2.90;;;;;;;;;;5034174;28;20025;-68
2024/03/23 04:50:44;;;;;;;16.38;3.00;;;;;;;;;;5033952;28;20060;-68
2024/03/23 04:53:09;;;;;;;6.65;1.90;;;;;;;;;;5032431;28;20467;-68
2024/03/23 04:55:35;;;;;;;16.93;2.43;;;;;;;;;;5033663;28;20396;-68
2024/03/23 04:58:00;;;;;;;9.57;2.33;;;;;;;;;;5033750;28;20276;-68
2024/03/23 05:00:26;;;;;;;9.57;2.07;;;;;;;;;;5031472;28;20034;-68
2024/03/23 05:02:52;;;;;;;12.52;3.50;;;;;;;;;;5031402;28;20339;-68
2024/03/23 05:05:18;;;;;;;25.55;3.72;;;;;;;;;;5032084;28;20427;-68
2024/03/23 05:07:43;;;;;;;19.58;5.25;;;;;;;;;;5033291;28;20021;-68
2024/03/23 05:10:10;;;;;;;22.63;4.27;;;;;;;;;;5029300;28;20036;-68
2024/03/23 05:12:36;;;;;;;21.95;3.80;;;;;;;;;;5032116;28;20540;-68
2024/03/23 05:15:01;;;;;;;14.45;3.30;;;;;;;;;;5027611;28;20049;-67
2024/03/23 05:17:26;;;;;;;21.33;4.22;;;;;;;;;;5030996;28;20018;-68
2024/03/23 05:19:51;;;;;;;11.83;2.47;;;;;;;;;;5034365;28;20029;-68
2024/03/23 05:22:17;;;;;;;12.30;2.83;;;;;;;;;;5027759;28;20819;-68
2024/03/23 05:24:42;;;;;;;32.43;3.67;;;;;;;;;;5033099;28;20280;-68
2024/03/23 05:27:07;;;;;;;30.00;5.70;;;;;;;;;;5035438;28;20252;-68
2024/03/23 05:29:32;;;;;;;12.47;4.20;;;;;;;;;;5030150;28;20336;-68
2024/03/23 05:31:57;;;;;;;11.07;3.47;;;;;;;;;;5031606;28;20275;-68
2024/03/23 05:34:22;;;;;;;10.30;3.33;;;;;;;;;;5029932;28;20480;-68
2024/03/23 05:36:49;;;;;;;5.87;1.90;;;;;;;;;;5033165;28;20288;-68
2024/03/23 05:39:16;;;;;;;16.40;2.72;;;;;;;;;;5034390;28;20623;-68
2024/03/23 05:41:41;;;;;;;13.13;3.00;;;;;;;;;;5033296;28;20028;-68
2024/03/23 05:44:06;;;;;;;13.30;4.30;;;;;;;;;;5032723;28;20017;-68
2024/03/23 05:46:31;;;;;;;18.92;2.38;;;;;;;;;;5032373;28;20025;-68
2024/03/23 05:49:01;;;;;;;18.48;3.47;;;;;;;;;;5039283;28;20017;-68
2024/03/23 05:51:26;;;;;;;17.52;3.13;;;;;;;;;;5030790;28;20033;-68
2024/03/23 05:53:51;;;;;;;13.63;3.57;;;;;;;;;;5029160;28;20038;-68
2024/03/23 05:56:19;;;;;;;19.17;3.80;;;;;;;;;;5031227;28;20371;-68
2024/03/23 05:58:44;;;;;;;8.65;2.45;;;;;;;;;;5019187;28;20770;-68
2024/03/23 06:01:10;;;;;;;15.53;3.73;;;;;;;;;;5030203;28;20030;-68
2024/03/23 06:03:35;;;;;;;26.95;3.13;;;;;;;;;;5029749;28;20287;-68
2024/03/23 06:06:00;;;;;;;13.18;3.60;;;;;;;;;;5031052;28;20051;-68
2024/03/23 06:08:25;;;;;;;26.23;2.97;;;;;;;;;;5032312;28;20021;-68
2024/03/23 06:10:51;;;;;;;14.60;2.73;;;;;;;;;;5033070;28;20032;-68
2024/03/23 06:13:16;;;;;;;18.77;2.92;;;;;;;;;;5031631;28;20282;-68
2024/03/23 06:15:42;;;;;;;19.40;2.72;;;;;;;;;;5033614;28;20029;-68
2024/03/23 06:18:07;;;;;;;21.45;3.72;;;;;;;;;;5036519;28;20046;-68
2024/03/23 06:20:33;;;;;;;19.58;4.22;;;;;;;;;;5029213;28;20511;-68
2024/03/23 06:22:58;;;;;;;17.02;3.42;;;;;;;;;;5028795;28;20083;-68
2024/03/23 06:25:23;;;;;;;20.63;2.27;;;;;;;;;;5022021;28;20036;-68
2024/03/23 06:27:48;;;;;;;8.60;2.30;;;;;;;;;;5028781;28;20321;-68
2024/03/23 06:30:14;;;;;;;21.83;3.50;;;;;;;;;;5027407;28;20272;-68
2024/03/23 06:32:39;;;;;;;15.00;3.90;;;;;;;;;;5026965;28;20314;-68
2024/03/23 06:35:09;;;;;;;12.40;3.20;;;;;;;;;;5030920;28;20144;-69
2024/03/23 06:37:35;;;;;;;7.47;2.10;;;;;;;;;;5025055;28;20800;-68
2024/03/23 06:40:00;;;;;;;18.05;4.32;;;;;;;;;;5029725;28;20037;-68
2024/03/23 06:42:25;;;;;;;19.87;4.10;;;;;;;;;;5035541;28;20017;-68
2024/03/23 06:44:50;;;;;;;12.85;2.67;;;;;;;;;;5030389;28;20355;-68
2024/03/23 06:47:16;;;;;;;23.55;4.63;;;;;;;;;;5031246;28;20039;-68
2024/03/23 06:49:41;;;;;;;2.47;1.35;;;;;;;;;;5030233;28;20021;-69
2024/03/23 06:52:06;;;;;;;11.03;2.43;;;;;;;;;;5029528;28;20032;-68
2024/03/23 06:54:31;;;;;;;11.63;2.60;;;;;;;;;;5029333;28;20298;-68
2024/03/23 06:56:56;;;;;;;16.97;3.27;;;;;;;;;;5029784;28;20283;-68
2024/03/23 06:59:22;;;;;;;21.17;4.77;;;;;;;;;;5029341;28;20260;-68
2024/03/23 07:01:47;;;;;;;20.65;3.00;;;;;;;;;;5027820;28;20603;-68
2024/03/23 07:04:12;;;;;;;23.37;3.70;;;;;;;;;;5022359;28;20022;-68
2024/03/23 07:06:44;;;;;;;15.63;3.00;;;;;;;;;;5024459;28;20359;-68
2024/03/23 07:09:09;;;;;;;8.60;1.92;;;;;;;;;;5028189;28;20275;-69
2024/03/23 07:11:34;;;;;;;27.35;4.40;;;;;;;;;;5022608;28;20033;-68
2024/03/23 07:13:59;;;;;;;28.10;3.37;;;;;;;;;;5025764;28;20362;-68
2024/03/23 07:16:26;;;;;;;7.50;1.23;;;;;;;;;;5025641;28;20294;-68
2024/03/23 07:18:51;;;;;;;11.43;2.92;;;;;;;;;;5029475;28;20029;-68
2024/03/23 07:21:17;;;;;;;20.03;3.63;;;;;;;;;;5024304;28;20044;-68
2024/03/23 07:23:44;;;;;;;5.68;2.70;;;;;;;;;;5021321;28;20271;-68
2024/03/23 07:26:09;;;;;;;19.95;2.30;;;;;;;;;;5027842;28;20075;-68
2024/03/23 07:28:36;;;;;;;15.17;2.17;;;;;;;;;;5026204;28;20029;-68
2024/03/23 07:31:04;;;;;;;22.80;4.55;;;;;;;;;;5025594;28;20290;-68
2024/03/23 07:33:30;;;;;;;18.80;3.55;;;;;;;;;;5021501;28;20507;-69
2024/03/23 07:35:55;;;;;;;25.63;4.32;;;;;;;;;;5025768;28;20040;-69
2024/03/23 07:38:22;;;;;;;12.45;3.88;;;;;;;;;;5023726;28;20025;-68
2024/03/23 07:40:55;;;;;;;31.65;4.70;;;;;;;;;;5026642;28;20021;-68
2024/03/23 07:43:20;;;;;;;23.73;4.90;;;;;;;;;;5025227;28;20014;-68
2024/03/23 07:45:51;;;;;;;18.67;4.87;;;;;;;;;;5025317;28;20069;-68
2024/03/23 07:48:16;;;;;;;27.27;6.82;;;;;;;;;;5025778;28;20793;-68
2024/03/23 07:50:41;;;;;;;26.73;5.97;;;;;;;;;;5021823;28;20091;-68
2024/03/23 07:53:06;;;;;;;27.63;6.70;;;;;;;;;;5026843;28;20256;-68
2024/03/23 07:55:31;;;;;;;26.70;6.23;;;;;;;;;;5026948;28;20864;-68
2024/03/23 07:57:56;;;;;;;27.20;6.13;;;;;;;;;;5027360;28;20287;-68
2024/03/23 08:00:21;;;;;;;21.87;6.70;;;;;;;;;;5024167;28;20260;-68
2024/03/23 08:02:47;;;;;;;24.97;5.33;;;;;;;;;;5026420;28;20284;-69
2024/03/23 08:05:12;;;;;;;21.07;7.20;;;;;;;;;;5027491;28;20299;-69
2024/03/23 08:07:37;;;;;;;22.33;7.07;;;;;;;;;;5025975;28;20303;-68
2024/03/23 08:10:03;;;;;;;29.90;8.57;;;;;;;;;;5027547;28;20755;-69
2024/03/23 08:12:28;;;;;;;30.20;8.38;;;;;;;;;;5026414;28;20635;-69
2024/03/23 08:14:53;;;;;;;25.70;7.33;;;;;;;;;;5026808;28;20038;-68
2024/03/23 08:17:18;;;;;;;24.98;7.43;;;;;;;;;;5026369;28;20306;-69
2024/03/23 08:19:44;;;;;;;17.70;6.23;;;;;;;;;;5026788;28;20033;-68
2024/03/23 08:22:09;;;;;;;24.42;7.43;;;;;;;;;;5026276;28;20282;-68
2024/03/23 08:24:34;;;;;;;21.80;6.70;;;;;;;;;;5027256;28;20033;-69
2024/03/23 08:26:59;;;;;;;22.33;6.93;;;;;;;;;;5026250;28;20021;-69
2024/03/23 08:29:24;;;;;;;23.30;5.40;;;;;;;;;;5024394;28;20045;-70
2024/03/23 08:31:50;;;;;;;21.75;5.35;;;;;;;;;;5021410;28;20310;-69
2024/03/23 08:34:15;;;;;;;18.90;4.33;;;;;;;;;;5020364;28;20095;-69
2024/03/23 08:36:40;;;;;;;23.80;5.68;;;;;;;;;;5017474;28;20026;-69
2024/03/23 08:39:05;;;;;;;20.60;5.37;;;;;;;;;;5022142;28;20026;-69
2024/03/23 08:41:30;;;;;;;17.25;4.57;;;;;;;;;;5025467;28;20355;-68
2024/03/23 08:43:56;;;;;;;23.80;4.83;;;;;;;;;;5024541;28;20542;-68
2024/03/23 08:46:21;;;;;;;16.40;2.90;;;;;;;;;;5020455;28;20286;-68
2024/03/23 08:48:48;;;;;;;17.83;4.77;;;;;;;;;;5025213;28;20275;-68
2024/03/23 08:51:14;;;;;;;12.35;3.05;;;;;;;;;;5024685;28;20461;-68
2024/03/23 08:53:40;;;;;;;15.18;3.50;;;;;;;;;;5026312;28;20175;-68
2024/03/23 08:56:06;;;;;;;23.70;5.13;;;;;;;;;;5027205;28;20140;-68
2024/03/23 08:58:32;;;;;;;14.73;3.53;;;;;;;;;;5024554;28;20736;-68
2024/03/23 09:01:02;;;;;;;16.95;3.63;;;;;;;;;;5024172;28;20114;-68
2024/03/23 09:03:28;;;;;;;8.80;1.90;;;;;;;;;;5021451;28;20108;-68
2024/03/23 09:05:54;;;;;;;16.00;4.20;;;;;;;;;;5024190;28;20053;-68
2024/03/23 09:08:19;;;;;;;19.67;6.03;;;;;;;;;;5025064;28;20034;-68
2024/03/23 09:10:45;;;;;;;21.03;5.80;;;;;;;;;;5020944;28;20404;-68
2024/03/23 09:13:10;;;;;;;13.80;3.85;;;;;;;;;;5025922;28;20252;-69
2024/03/23 09:15:36;;;;;;;16.48;4.63;;;;;;;;;;5024664;28;20357;-68
2024/03/23 09:18:02;;;;;;;16.42;4.85;;;;;;;;;;5022634;28;20029;-68
2024/03/23 09:20:27;;;;;;;21.02;4.78;;;;;;;;;;5022322;28;20025;-68
2024/03/23 09:22:52;;;;;;;18.00;4.93;;;;;;;;;;5024358;28;20032;-68
2024/03/23 09:25:17;;;;;;;14.87;4.40;;;;;;;;;;5024710;28;20032;-68
2024/03/23 09:27:43;;;;;;;11.90;3.77;;;;;;;;;;5023132;28;20382;-68
2024/03/23 09:30:09;;;;;;;19.83;4.40;;;;;;;;;;5026410;28;20271;-68
2024/03/23 09:32:35;;;;;;;21.80;4.70;;;;;;;;;;5027731;28;20319;-67
2024/03/23 09:35:00;;;;;;;26.00;5.03;;;;;;;;;;5025591;28;20025;-68
2024/03/23 09:37:25;;;;;;;12.80;4.43;;;;;;;;;;5027041;28;20284;-68
2024/03/23 09:39:50;;;;;;;15.27;2.97;;;;;;;;;;5029373;28;20260;-68
2024/03/23 09:42:16;;;;;;;17.70;3.67;;;;;;;;;;5028060;28;20290;-68
2024/03/23 09:44:41;;;;;;;25.38;4.45;;;;;;;;;;5028580;28;20252;-69
2024/03/23 09:47:07;;;;;;;17.70;2.93;;;;;;;;;;5026331;28;20030;-68
2024/03/23 09:49:36;;;;;;;23.92;4.25;;;;;;;;;;5026870;28;20276;-68
2024/03/23 09:52:01;;;;;;;15.13;4.22;;;;;;;;;;5025498;28;20507;-68
2024/03/23 09:54:26;;;;;;;16.43;4.03;;;;;;;;;;5026065;28;20056;-68
2024/03/23 09:56:51;;;;;;;15.70;3.50;;;;;;;;;;5025723;28;20284;-68
2024/03/23 09:59:17;;;;;;;8.53;1.03;;;;;;;;;;5027728;28;20311;-68
2024/03/23 10:01:42;;;;;;;11.00;3.10;;;;;;;;;;5028956;28;20338;-68
2024/03/23 10:04:07;;;;;;;8.73;2.95;;;;;;;;;;5026622;28;21061;-68
2024/03/23 10:06:34;;;;;;;13.03;2.67;;;;;;;;;;5027768;28;20365;-68
2024/03/23 10:08:59;;;;;;;9.90;2.67;;;;;;;;;;5028633;28;20536;-68
2024/03/23 10:11:25;;;;;;;16.40;3.43;;;;;;;;;;5027486;28;20407;-68
2024/03/23 10:13:50;;;;;;;17.42;2.60;;;;;;;;;;5024059;28;20323;-68
2024/03/23 10:16:22;;;;;;;16.10;3.05;;;;;;;;;;5025241;28;20029;-68
2024/03/23 10:18:48;;;;;;;12.30;2.95;;;;;;;;;;5027292;28;20037;-68
2024/03/23 10:21:14;;;;;;;7.53;3.00;;;;;;;;;;5027800;28;20016;-68
2024/03/23 10:23:41;;;;;;;12.43;2.38;;;;;;;;;;5025273;28;20022;-68
2024/03/23 10:26:23;;;;;;;13.75;3.20;;;;;;;;;;5026456;28;20018;-68
2024/03/23 10:29:00;;;;;;;12.68;2.58;;;;;;;;;;5027554;28;20029;-68
2024/03/23 10:31:25;;;;;;;13.32;1.98;;;;;;;;;;5027800;28;20655;-68
2024/03/23 10:33:53;;;;;;;14.57;1.50;;;;;;;;;;5029867;28;20112;-68
2024/03/23 10:36:20;;;;;;;10.00;2.55;;;;;;;;;;5029786;28;20384;-68
2024/03/23 10:38:45;;;;;;;8.00;2.58;;;;;;;;;;5026496;28;20566;-68
2024/03/23 10:41:11;;;;;;;9.00;2.70;;;;;;;;;;5028540;28;20018;-67
2024/03/23 10:43:37;;;;;;;17.45;2.97;;;;;;;;;;5029074;28;20113;-68
2024/03/23 10:46:02;;;;;;;17.67;2.58;;;;;;;;;;5029656;28;20079;-68
2024/03/23 10:48:27;;;;;;;12.20;2.72;;;;;;;;;;5028829;28;20017;-67
2024/03/23 10:50:52;;;;;;;6.93;1.63;;;;;;;;;;5027709;28;20029;-67
2024/03/23 10:53:18;;;;;;;4.50;1.40;;;;;;;;;;5029078;28;20013;-67
2024/03/23 10:55:43;;;;;;;6.90;1.48;;;;;;;;;;5028753;28;20405;-68
2024/03/23 10:58:10;;;;;;;7.78;1.75;;;;;;;;;;5029968;28;20028;-67
2024/03/23 11:00:37;;;;;;;6.85;1.13;;;;;;;;;;5030061;28;20443;-67
2024/03/23 11:03:21;;;;;;;6.78;1.48;;;;;;;;;;5029714;28;20100;-67
2024/03/23 11:05:46;;;;;;;0.82;0.55;;;;;;;;;;5029987;28;20172;-67
2024/03/23 11:08:29;;;;;;;9.57;1.70;;;;;;;;;;5029586;28;20112;-67
2024/03/23 11:11:11;;;;;;;4.45;1.02;;;;;;;;;;5029595;28;20028;-67
2024/03/23 11:13:36;;;;;;;5.93;1.23;;;;;;;;;;5028924;28;20037;-67
2024/03/23 11:16:12;;;;;;;1.67;0.73;;;;;;;;;;5030009;28;20397;-67
2024/03/23 11:18:37;;;;;;;11.57;1.25;;;;;;;;;;5027472;28;20715;-67
2024/03/23 11:21:02;;;;;;;9.80;1.80;;;;;;;;;;5029749;28;20274;-67
2024/03/23 11:23:28;;;;;;;9.05;1.20;;;;;;;;;;5029450;28;20260;-67
2024/03/23 11:25:53;;;;;;;3.28;1.33;;;;;;;;;;5029970;28;20067;-67
2024/03/23 11:28:18;;;;;;;2.50;0.80;;;;;;;;;;5028693;28;20018;-67
2024/03/23 11:30:43;;;;;;;5.43;0.70;;;;;;;;;;5028857;28;20735;-67
2024/03/23 11:33:09;;;;;;;3.83;0.60;;;;;;;;;;5023123;28;20448;-68
2024/03/23 11:35:40;;;;;;;4.20;0.90;;;;;;;;;;5028508;28;20291;-68
2024/03/23 11:38:08;;;;;;;6.35;0.63;;;;;;;;;;5029318;28;20040;-67
2024/03/23 11:40:34;;;;;;;1.88;0.38;;;;;;;;;;5027394;28;20100;-68
2024/03/23 11:43:00;;;;;;;2.53;0.60;;;;;;;;;;5029666;28;20105;-67
2024/03/23 11:45:25;;;;;;;2.78;0.60;;;;;;;;;;5029222;28;20026;-68
2024/03/23 11:48:19;;;;;;;3.15;0.80;;;;;;;;;;5027820;28;20083;-68
2024/03/23 11:50:57;;;;;;;3.65;1.42;;;;;;;;;;5035066;28;20044;-67
2024/03/23 11:53:23;;;;;;;9.48;0.90;;;;;;;;;;5029100;28;20022;-67
2024/03/23 11:55:52;;;;;;;5.57;1.42;;;;;;;;;;5029217;28;20072;-67
2024/03/23 11:58:18;;;;;;;4.22;1.00;;;;;;;;;;5029016;28;20068;-66
2024/03/23 12:00:51;;;;;;;6.20;1.58;;;;;;;;;;5028730;28;20021;-67
2024/03/23 12:03:18;;;;;;;7.18;1.17;;;;;;;;;;5029430;28;20548;-67
2024/03/23 12:05:47;;;;;;;9.35;1.30;;;;;;;;;;5027622;28;20519;-67
2024/03/23 12:08:20;;;;;;;2.05;0.68;;;;;;;;;;5029304;28;20075;-67
2024/03/23 12:10:49;;;;;;;8.85;1.95;;;;;;;;;;5028832;28;20018;-67
2024/03/23 12:13:17;;;;;;;6.57;1.90;;;;;;;;;;5029065;28;20014;-67
2024/03/23 12:15:42;;;;;;;9.18;2.05;;;;;;;;;;5028767;28;20026;-67
2024/03/23 12:18:07;;;;;;;8.00;1.57;;;;;;;;;;5029331;28;20051;-67
2024/03/23 12:20:33;;;;;;;12.80;1.60;;;;;;;;;;5027516;28;20264;-67
2024/03/23 12:23:08;;;;;;;13.17;2.03;;;;;;;;;;5027668;28;20105;-68
2024/03/23 12:25:34;;;;;;;10.35;1.98;;;;;;;;;;5027275;28;20264;-67
2024/03/23 12:27:59;;;;;;;3.50;0.73;;;;;;;;;;5027529;28;20018;-67
2024/03/23 12:30:24;;;;;;;1.35;0.50;;;;;;;;;;5028763;28;20018;-67
2024/03/23 12:32:50;;;;;;;1.30;0.40;;;;;;;;;;5028678;28;20118;-67
2024/03/23 12:35:15;;;;;;;1.25;0.60;;;;;;;;;;5028697;28;20252;-67
2024/03/23 12:37:40;;;;;;;5.27;1.27;;;;;;;;;;5027384;28;20396;-67
2024/03/23 12:40:06;;;;;;;2.60;1.10;;;;;;;;;;5028476;28;20421;-67
2024/03/23 12:42:32;;;;;;;3.53;1.13;;;;;;;;;;5028038;28;20750;-67
2024/03/23 12:44:57;;;;;;;1.23;0.88;;;;;;;;;;5022685;28;20033;-68
2024/03/23 12:47:22;;;;;;;6.60;1.33;;;;;;;;;;5028352;28;20052;-67
2024/03/23 12:49:49;;;;;;;5.30;0.97;;;;;;;;;;5026572;28;20750;-67
2024/03/23 12:52:14;;;;;;;3.15;0.60;;;;;;;;;;5028632;28;20253;-67
2024/03/23 12:54:39;;;;;;;3.30;0.40;;;;;;;;;;5027420;28;20059;-67
2024/03/23 12:57:05;;;;;;;0.90;0.47;;;;;;;;;;5028631;28;20663;-68
2024/03/23 12:59:30;;;;;;;3.23;0.60;;;;;;;;;;5028607;28;20334;-67
2024/03/23 13:01:55;;;;;;;2.40;0.38;;;;;;;;;;5028458;28;20312;-68
2024/03/23 13:04:21;;;;;;;2.00;0.70;;;;;;;;;;5028013;28;20013;-67
2024/03/23 13:06:46;;;;;;;2.65;0.75;;;;;;;;;;5031852;28;20693;-67
2024/03/23 13:09:11;;;;;;;0.85;0.50;;;;;;;;;;5031846;28;20024;-67
2024/03/23 13:11:36;;;;;;;1.50;0.60;;;;;;;;;;5032906;28;20112;-66
2024/03/23 13:14:03;;;;;;;1.23;0.50;;;;;;;;;;5032261;28;20252;-67
2024/03/23 13:16:28;;;;;;;1.63;0.55;;;;;;;;;;5031866;28;20387;-68
2024/03/23 13:18:53;;;;;;;2.30;0.87;;;;;;;;;;5030947;28;20093;-67
2024/03/23 13:21:18;;;;;;;4.83;0.73;;;;;;;;;;5030232;28;20326;-67
2024/03/23 13:23:47;;;;;;;2.55;1.02;;;;;;;;;;5031958;28;20294;-67
2024/03/23 13:26:13;;;;;;;6.43;1.17;;;;;;;;;;5031839;28;20018;-67
2024/03/23 13:28:38;;;;;;;3.83;0.83;;;;;;;;;;5031836;28;20018;-67
2024/03/23 13:31:03;;;;;;;3.73;0.77;;;;;;;;;;5032096;28;20252;-68
2024/03/23 13:33:28;;;;;;;4.38;0.77;;;;;;;;;;5031890;28;20303;-69
2024/03/23 13:35:55;;;;;;;3.13;1.15;;;;;;;;;;5030811;28;20025;-67
2024/03/23 13:38:20;;;;;;;6.18;1.48;;;;;;;;;;5031314;28;20032;-67
2024/03/23 13:40:52;;;;;;;8.15;2.10;;;;;;;;;;5031393;28;20013;-68
2024/03/23 13:43:17;;;;;;;4.95;1.60;;;;;;;;;;5031885;28;20029;-68
2024/03/23 13:45:43;;;;;;;3.20;1.40;;;;;;;;;;5031951;28;20026;-68
2024/03/23 13:48:08;;;;;;;2.60;1.20;;;;;;;;;;5032095;28;20783;-68
2024/03/23 13:50:33;;;;;;;4.93;1.25;;;;;;;;;;5031429;28;20291;-68
2024/03/23 13:52:58;;;;;;;6.18;1.90;;;;;;;;;;5029936;28;20033;-68
2024/03/23 13:55:23;;;;;;;9.77;3.67;;;;;;;;;;5030764;28;20416;-68
2024/03/23 13:57:50;;;;;;;5.95;2.72;;;;;;;;;;5030948;28;20280;-69
2024/03/23 14:00:15;;;;;;;7.25;2.05;;;;;;;;;;5031412;28;20739;-68
2024/03/23 14:02:41;;;;;;;11.07;2.70;;;;;;;;;;5031503;28;20049;-68
2024/03/23 14:05:06;;;;;;;7.17;2.10;;;;;;;;;;5030830;28;20040;-69
2024/03/23 14:07:31;;;;;;;4.90;1.30;;;;;;;;;;5029683;28;20296;-68
2024/03/23 14:10:02;;;;;;;2.70;1.15;;;;;;;;;;5027779;28;20426;-68
2024/03/23 14:12:27;;;;;;;3.95;0.90;;;;;;;;;;5030561;28;20029;-68
2024/03/23 14:14:52;;;;;;;3.83;0.82;;;;;;;;;;5030366;28;20029;-69
2024/03/23 14:17:18;;;;;;;2.20;0.70;;;;;;;;;;5030102;28;20021;-68
2024/03/23 14:19:43;;;;;;;5.18;1.08;;;;;;;;;;5028296;28;20014;-68
2024/03/23 14:22:08;;;;;;;5.85;1.05;;;;;;;;;;5029413;28;20535;-68
2024/03/23 14:24:34;;;;;;;4.83;1.10;;;;;;;;;;5030082;28;20030;-68
2024/03/23 14:27:03;;;;;;;3.43;0.93;;;;;;;;;;5029493;28;20334;-68